sensor_id;sensor_type;location;lat;lon;timestamp;pressure;altitude;pressure_sealevel;temperature;humidity
3590;BME280;1809;48.470;9.226;2023-02-23T00:01:43;127193.47;;;8.76;100.00
3590;BME280;1809;48.470;9.226;2023-02-23T00:04:08;126836.66;;;8.70;100.00
3590;BME280;1809;48.470;9.226;2023-02-23T00:06:35;127520.91;;;8.68;100.00
3590;BME280;1809;48.470;9.226;2023-02-23T00:09:02;127855.63;;;8.63;100.00
3590;BME280;1809;48.470;9.226;2023-02-23T00:11:31;128200.94;;;8.63;100.00
3590;BME280;1809;48.470;9.226;2023-02-23T00:13:57;128534.63;;;8.58;100.00
3590;BME280;1809;48.470;9.226;2023-02-23T00:16:25;129565.50;;;8.57;100.00
3590;BME280;1809;48.470;9.226;2023-02-23T00:18:56;130243.56;;;8.52;100.00
3590;BME280;1809;48.470;9.226;2023-02-23T00:21:29;130932.50;;;8.52;100.00
3590;BME280;1809;48.470;9.226;2023-02-23T00:23:58;131613.91;;;8.49;100.00
3590;BME280;1809;48.470;9.226;2023-02-23T00:26:26;132653.16;;;8.51;100.00
3590;BME280;1809;48.470;9.226;2023-02-23T00:28:56;132989.00;;;8.47;100.00
3590;BME280;1809;48.470;9.226;2023-02-23T00:31:23;133679.50;;;8.48;100.00
3590;BME280;1809;48.470;9.226;2023-02-23T00:33:55;134026.50;;;8.49;100.00
3590;BME280;1809;48.470;9.226;2023-02-23T00:36:25;134738.44;;;8.59;100.00
3590;BME280;1809;48.470;9.226;2023-02-23T00:38:56;133702.78;;;8.58;100.00
3590;BME280;1809;48.470;9.226;2023-02-23T00:41:22;133026.47;;;8.64;100.00
3590;BME280;1809;48.470;9.226;2023-02-23T00:43:53;132323.88;;;8.58;100.00
3590;BME280;1809;48.470;9.226;2023-02-23T00:46:21;132317.31;;;8.55;100.00
3590;BME280;1809;48.470;9.226;2023-02-23T00:48:49;132318.41;;;8.56;100.00
3590;BME280;1809;48.470;9.226;2023-02-23T00:51:17;133015.44;;;8.59;100.00
3590;BME280;1809;48.470;9.226;2023-02-23T00:53:43;132690.53;;;8.69;100.00
3590;BME280;1809;48.470;9.226;2023-02-23T00:56:11;132701.50;;;8.74;100.00
3590;BME280;1809;48.470;9.226;2023-02-23T00:58:38;132351.25;;;8.71;100.00
3590;BME280;1809;48.470;9.226;2023-02-23T01:01:09;132672.94;;;8.60;100.00
3590;BME280;1809;48.470;9.226;2023-02-23T01:03:37;133695.03;;;8.55;100.00
3590;BME280;1809;48.470;9.226;2023-02-23T01:06:09;135073.25;;;8.54;100.00
3590;BME280;1809;48.470;9.226;2023-02-23T01:08:38;135758.66;;;8.52;100.00
3590;BME280;1809;48.470;9.226;2023-02-23T01:11:09;136784.59;;;8.48;100.00
3590;BME280;1809;48.470;9.226;2023-02-23T01:13:39;137471.31;;;8.47;100.00
3590;BME280;1809;48.470;9.226;2023-02-23T01:16:09;138157.00;;;8.45;100.00
3590;BME280;1809;48.470;9.226;2023-02-23T01:18:37;138839.31;;;8.41;100.00
3590;BME280;1809;48.470;9.226;2023-02-23T01:21:03;139184.50;;;8.41;100.00
3590;BME280;1809;48.470;9.226;2023-02-23T01:23:32;139873.88;;;8.41;100.00
3590;BME280;1809;48.470;9.226;2023-02-23T01:25:58;140556.41;;;8.37;100.00
3590;BME280;1809;48.470;9.226;2023-02-23T01:28:24;141244.81;;;8.36;100.00
3590;BME280;1809;48.470;9.226;2023-02-23T01:30:49;141606.69;;;8.43;100.00
3590;BME280;1809;48.470;9.226;2023-02-23T01:33:15;141947.44;;;8.41;100.00
3590;BME280;1809;48.470;9.226;2023-02-23T01:35:44;141956.88;;;8.45;100.00
3590;BME280;1809;48.470;9.226;2023-02-23T01:38:10;141960.38;;;8.47;100.00
3590;BME280;1809;48.470;9.226;2023-02-23T01:40:42;141617.22;;;8.48;100.00
3590;BME280;1809;48.470;9.226;2023-02-23T01:45:37;141634.88;;;8.55;100.00
3590;BME280;1809;48.470;9.226;2023-02-23T01:48:13;140931.00;;;8.50;100.00
3590;BME280;1809;48.470;9.226;2023-02-23T01:51:10;140943.84;;;8.55;100.00
3590;BME280;1809;48.470;9.226;2023-02-23T01:53:47;140234.31;;;8.47;100.00
3590;BME280;1809;48.470;9.226;2023-02-23T01:56:25;140236.66;;;8.48;100.00
3590;BME280;1809;48.470;9.226;2023-02-23T01:58:54;139892.47;;;8.49;100.00
3590;BME280;1809;48.470;9.226;2023-02-23T02:01:22;139877.38;;;8.42;100.00
3590;BME280;1809;48.470;9.226;2023-02-23T02:03:52;139879.72;;;8.43;100.00
3590;BME280;1809;48.470;9.226;2023-02-23T02:06:20;139877.38;;;8.42;100.00
3590;BME280;1809;48.470;9.226;2023-02-23T02:08:51;139888.97;;;8.47;100.00
3590;BME280;1809;48.470;9.226;2023-02-23T02:11:23;139891.28;;;8.48;100.00
3590;BME280;1809;48.470;9.226;2023-02-23T02:45:10;136521.00;;;8.85;100.00
3590;BME280;1809;48.470;9.226;2023-02-23T02:47:48;136505.19;;;8.78;100.00
3590;BME280;1809;48.470;9.226;2023-02-23T02:50:25;136156.63;;;8.76;100.00
3590;BME280;1809;48.470;9.226;2023-02-23T02:53:07;136147.59;;;8.72;100.00
3590;BME280;1809;48.470;9.226;2023-02-23T02:55:36;136162.25;;;8.79;100.00
3590;BME280;1809;48.470;9.226;2023-02-23T02:58:05;136148.72;;;8.73;100.00
3590;BME280;1809;48.470;9.226;2023-02-23T03:00:40;136166.78;;;8.81;100.00
3590;BME280;1809;48.470;9.226;2023-02-23T03:03:36;136493.84;;;8.73;100.00
3590;BME280;1809;48.470;9.226;2023-02-23T03:06:33;136836.78;;;8.72;100.00
3590;BME280;1809;48.470;9.226;2023-02-23T03:09:43;137175.13;;;8.69;100.00
3590;BME280;1809;48.470;9.226;2023-02-23T03:12:39;137164.91;;;8.64;100.00
3590;BME280;1809;48.470;9.226;2023-02-23T03:22:03;140580.88;;;8.48;100.00
3590;BME280;1809;48.470;9.226;2023-02-23T03:24:57;140915.78;;;8.43;100.00
3590;BME280;1809;48.470;9.226;2023-02-23T03:27:57;141616.03;;;8.47;100.00
3590;BME280;1809;48.470;9.226;2023-02-23T03:30:53;141621.97;;;8.50;100.00
3590;BME280;1809;48.470;9.226;2023-02-23T03:34:11;141632.50;;;8.54;100.00
3590;BME280;1809;48.470;9.226;2023-02-23T03:37:19;141630.13;;;8.53;100.00
3590;BME280;1809;48.470;9.226;2023-02-23T03:40:14;140932.13;;;8.50;100.00
3590;BME280;1809;48.470;9.226;2023-02-23T03:42:59;140241.28;;;8.50;100.00
3590;BME280;1809;48.470;9.226;2023-02-23T03:45:48;140241.28;;;8.50;100.00
3590;BME280;1809;48.470;9.226;2023-02-23T03:48:35;139898.25;;;8.51;100.00
3590;BME280;1809;48.470;9.226;2023-02-23T03:51:20;139901.75;;;8.53;100.00
3590;BME280;1809;48.470;9.226;2023-02-23T03:54:12;139914.50;;;8.58;100.00
3590;BME280;1809;48.470;9.226;2023-02-23T03:57:00;139567.97;;;8.58;100.00
3590;BME280;1809;48.470;9.226;2023-02-23T03:59:51;139221.47;;;8.57;100.00
3590;BME280;1809;48.470;9.226;2023-02-23T04:02:38;139214.53;;;8.54;100.00
3590;BME280;1809;48.470;9.226;2023-02-23T04:05:22;138873.84;;;8.56;100.00
3590;BME280;1809;48.470;9.226;2023-02-23T04:08:11;139221.47;;;8.57;100.00
3590;BME280;1809;48.470;9.226;2023-02-23T04:11:06;138889.97;;;8.63;100.00
3590;BME280;1809;48.470;9.226;2023-02-23T04:13:59;137849.59;;;8.61;100.00
3590;BME280;1809;48.470;9.226;2023-02-23T04:16:27;135783.38;;;8.63;100.00
3590;BME280;1809;48.470;9.226;2023-02-23T04:18:53;132680.63;;;8.64;100.00
3590;BME280;1809;48.470;9.226;2023-02-23T04:21:19;130601.00;;;8.58;100.00
3590;BME280;1809;48.470;9.226;2023-02-23T04:23:44;128888.53;;;8.63;100.00
3590;BME280;1809;48.470;9.226;2023-02-23T04:26:09;127156.69;;;8.58;100.00
3590;BME280;1809;48.470;9.226;2023-02-23T04:28:35;126461.09;;;8.54;100.00
3590;BME280;1809;48.470;9.226;2023-02-23T04:31:00;126108.69;;;8.50;100.00
3590;BME280;1809;48.470;9.226;2023-02-23T04:33:26;126107.69;;;8.50;100.00
3590;BME280;1809;48.470;9.226;2023-02-23T04:35:54;125766.81;;;8.51;100.00
3590;BME280;1809;48.470;9.226;2023-02-23T04:38:20;125763.69;;;8.50;100.00
3590;BME280;1809;48.470;9.226;2023-02-23T04:40:46;125089.22;;;8.56;100.00
3590;BME280;1809;48.470;9.226;2023-02-23T04:43:11;124398.34;;;8.55;100.00
3590;BME280;1809;48.470;9.226;2023-02-23T04:45:37;124394.25;;;8.53;100.00
3590;BME280;1809;48.470;9.226;2023-02-23T04:48:02;124745.31;;;8.56;100.00
3590;BME280;1809;48.470;9.226;2023-02-23T04:50:28;124409.66;;;8.60;100.00
3590;BME280;1809;48.470;9.226;2023-02-23T04:52:53;123371.97;;;8.57;100.00
3590;BME280;1809;48.470;9.226;2023-02-23T04:55:21;123044.47;;;8.65;100.00
3590;BME280;1809;48.470;9.226;2023-02-23T04:57:47;121327.94;;;8.67;100.00
3590;BME280;1809;48.470;9.226;2023-02-23T05:00:13;120652.69;;;8.73;100.00
3590;BME280;1809;48.470;9.226;2023-02-23T05:02:38;118250.25;;;8.74;100.00
3590;BME280;1809;48.470;9.226;2023-02-23T05:05:05;117560.66;;;8.72;100.00
3590;BME280;1809;48.470;9.226;2023-02-23T05:07:31;117219.31;;;8.73;100.00
3590;BME280;1809;48.470;9.226;2023-02-23T05:09:57;117575.22;;;8.80;100.00
3590;BME280;1809;48.470;9.226;2023-02-23T05:12:22;117228.03;;;8.78;100.00
3590;BME280;1809;48.470;9.226;2023-02-23T05:14:48;116873.19;;;8.72;100.00
3590;BME280;1809;48.470;9.226;2023-02-23T05:17:13;117218.34;;;8.73;100.00
3590;BME280;1809;48.470;9.226;2023-02-23T05:19:38;117555.81;;;8.70;100.00
3590;BME280;1809;48.470;9.226;2023-02-23T05:22:04;118586.78;;;8.70;100.00
3590;BME280;1809;48.470;9.226;2023-02-23T05:24:29;119278.53;;;8.73;100.00
3590;BME280;1809;48.470;9.226;2023-02-23T05:26:54;118950.84;;;8.81;100.00
3590;BME280;1809;48.470;9.226;2023-02-23T05:29:20;117906.91;;;8.74;100.00
3590;BME280;1809;48.470;9.226;2023-02-23T05:31:45;118939.03;;;8.75;100.00
3590;BME280;1809;48.470;9.226;2023-02-23T05:34:12;118595.63;;;8.75;100.00
3590;BME280;1809;48.470;9.226;2023-02-23T05:36:38;118250.25;;;8.74;100.00
3590;BME280;1809;48.470;9.226;2023-02-23T05:39:03;118601.50;;;8.78;100.00
3590;BME280;1809;48.470;9.226;2023-02-23T05:41:28;118592.66;;;8.73;100.00
3590;BME280;1809;48.470;9.226;2023-02-23T05:43:54;119275.63;;;8.71;100.00
3590;BME280;1809;48.470;9.226;2023-02-23T05:46:22;119959.59;;;8.70;100.00
3590;BME280;1809;48.470;9.226;2023-02-23T05:48:48;120640.72;;;8.67;100.00
3590;BME280;1809;48.470;9.226;2023-02-23T05:51:15;120983.31;;;8.66;100.00
3590;BME280;1809;48.470;9.226;2023-02-23T05:53:41;121671.59;;;8.67;100.00
3590;BME280;1809;48.470;9.226;2023-02-23T05:56:11;122352.91;;;8.63;100.00
3590;BME280;1809;48.470;9.226;2023-02-23T05:58:36;123746.47;;;8.73;100.00
3590;BME280;1809;48.470;9.226;2023-02-23T06:01:02;124424.06;;;8.68;100.00
3590;BME280;1809;48.470;9.226;2023-02-23T06:03:28;125445.63;;;8.62;100.00
3590;BME280;1809;48.470;9.226;2023-02-23T06:05:55;126834.59;;;8.69;100.00
3590;BME280;1809;48.470;9.226;2023-02-23T06:08:22;127154.56;;;8.57;100.00
3590;BME280;1809;48.470;9.226;2023-02-23T06:10:49;128174.44;;;8.51;100.00
3590;BME280;1809;48.470;9.226;2023-02-23T06:13:16;129539.78;;;8.45;100.00
3590;BME280;1809;48.470;9.226;2023-02-23T06:15:42;131606.28;;;8.45;100.00
3590;BME280;1809;48.470;9.226;2023-02-23T06:18:07;132642.19;;;8.46;100.00
3590;BME280;1809;48.470;9.226;2023-02-23T06:20:34;133669.56;;;8.43;100.00
3590;BME280;1809;48.470;9.226;2023-02-23T06:23:03;135058.72;;;8.48;100.00
3590;BME280;1809;48.470;9.226;2023-02-23T06:25:29;136441.84;;;8.49;100.00
3590;BME280;1809;48.470;9.226;2023-02-23T06:27:54;136771.00;;;8.42;100.00
3590;BME280;1809;48.470;9.226;2023-02-23T06:30:20;138155.84;;;8.44;100.00
3590;BME280;1809;48.470;9.226;2023-02-23T06:32:46;138487.22;;;8.38;100.00
3590;BME280;1809;48.470;9.226;2023-02-23T06:35:12;138480.34;;;8.35;100.00
3590;BME280;1809;48.470;9.226;2023-02-23T06:37:37;138814.00;;;8.30;100.00
3590;BME280;1809;48.470;9.226;2023-02-23T06:40:06;139851.88;;;8.31;100.00
3590;BME280;1809;48.470;9.226;2023-02-23T06:42:33;140548.25;;;8.34;100.00
3590;BME280;1809;48.470;9.226;2023-02-23T06:45:01;141571.41;;;8.28;100.00
3590;BME280;1809;48.470;9.226;2023-02-23T06:47:29;141912.06;;;8.26;100.00
3590;BME280;1809;48.470;9.226;2023-02-23T06:49:55;142267.00;;;8.30;100.00
3590;BME280;1809;48.470;9.226;2023-02-23T06:52:24;142610.09;;;8.29;100.00
3590;BME280;1809;48.470;9.226;2023-02-23T06:54:50;142966.31;;;8.34;100.00
3590;BME280;1809;48.470;9.226;2023-02-23T06:57:16;142969.84;;;8.35;100.00
3590;BME280;1809;48.470;9.226;2023-02-23T06:59:41;142962.72;;;8.32;100.00
3590;BME280;1809;48.470;9.226;2023-02-23T07:02:09;142973.44;;;8.37;100.00
3590;BME280;1809;48.470;9.226;2023-02-23T07:04:35;142981.75;;;8.40;100.00
3590;BME280;1809;48.470;9.226;2023-02-23T07:07:00;142986.47;;;8.42;100.00
3590;BME280;1809;48.470;9.226;2023-02-23T07:09:49;142992.38;;;8.45;100.00
3590;BME280;1809;48.470;9.226;2023-02-23T07:12:15;142664.56;;;8.52;100.00
3590;BME280;1809;48.470;9.226;2023-02-23T07:14:40;141985.13;;;8.57;100.00
3590;BME280;1809;48.470;9.226;2023-02-23T07:17:05;141648.97;;;8.61;100.00
3590;BME280;1809;48.470;9.226;2023-02-23T07:19:32;141317.47;;;8.68;100.00
3590;BME280;1809;48.470;9.226;2023-02-23T07:21:58;140976.53;;;8.70;100.00
3590;BME280;1809;48.470;9.226;2023-02-23T07:24:24;140988.28;;;8.75;100.00
3590;BME280;1809;48.470;9.226;2023-02-23T07:26:49;140669.50;;;8.86;100.00
3590;BME280;1809;48.470;9.226;2023-02-23T07:29:16;139981.78;;;8.88;100.00
3590;BME280;1809;48.470;9.226;2023-02-23T07:31:43;139314.97;;;8.98;100.00
3590;BME280;1809;48.470;9.226;2023-02-23T07:34:09;137955.88;;;9.08;100.00
3590;BME280;1809;48.470;9.226;2023-02-23T07:36:34;135916.16;;;9.23;100.00
3590;BME280;1809;48.470;9.226;2023-02-23T07:39:03;133169.72;;;9.30;100.00
3590;BME280;1809;48.470;9.226;2023-02-23T07:41:29;131116.81;;;9.38;100.00
3590;BME280;1809;48.470;9.226;2023-02-23T07:43:55;129755.34;;;9.47;100.00
3590;BME280;1809;48.470;9.226;2023-02-23T07:46:22;127356.59;;;9.54;100.00
3590;BME280;1809;48.470;9.226;2023-02-23T07:48:47;125653.22;;;9.63;100.00
3590;BME280;1809;48.470;9.226;2023-02-23T07:51:16;123958.31;;;9.77;100.00
3590;BME280;1809;48.470;9.226;2023-02-23T07:53:43;120876.06;;;9.86;100.00
3590;BME280;1809;48.470;9.226;2023-02-23T07:56:09;117781.09;;;9.87;100.00
3590;BME280;1809;48.470;9.226;2023-02-23T07:58:40;115728.47;;;9.92;100.00
3590;BME280;1809;48.470;9.226;2023-02-23T08:01:06;113347.97;;;10.06;100.00
3590;BME280;1809;48.470;9.226;2023-02-23T08:03:32;110603.69;;;10.08;100.00
3590;BME280;1809;48.470;9.226;2023-02-23T08:05:58;109580.91;;;10.12;100.00
3590;BME280;1809;48.470;9.226;2023-02-23T08:08:24;107548.38;;;10.27;100.00
3590;BME280;1809;48.470;9.226;2023-02-23T08:10:50;104818.69;;;10.36;100.00
3590;BME280;1809;48.470;9.226;2023-02-23T08:13:16;101079.75;;;10.55;100.00
3590;BME280;1809;48.470;9.226;2023-02-23T08:15:42;96284.53;;;10.54;100.00
3590;BME280;1809;48.470;9.226;2023-02-23T08:18:08;97992.84;;;10.52;100.00
3590;BME280;1809;48.470;9.226;2023-02-23T08:20:34;101423.31;;;10.55;100.00
3590;BME280;1809;48.470;9.226;2023-02-23T08:23:00;102825.75;;;10.74;100.00
3590;BME280;1809;48.470;9.226;2023-02-23T08:25:26;101825.41;;;10.91;100.00
3590;BME280;1809;48.470;9.226;2023-02-23T08:27:52;98058.81;;;10.94;100.00
3590;BME280;1809;48.470;9.226;2023-02-23T08:30:20;94989.91;;;11.02;100.00
3590;BME280;1809;48.470;9.226;2023-02-23T08:32:49;92604.09;;;11.09;100.00
3590;BME280;1809;48.470;9.226;2023-02-23T08:35:16;86086.66;;;10.93;100.00
3590;BME280;1809;48.470;9.226;2023-02-23T08:37:43;81996.03;;;10.96;100.00
3590;BME280;1809;48.470;9.226;2023-02-23T08:40:10;77255.09;;;11.20;100.00
3590;BME280;1809;48.470;9.226;2023-02-23T08:42:36;67738.13;;;11.28;100.00
3590;BME280;1809;48.470;9.226;2023-02-23T08:45:02;58244.03;;;11.36;100.00
3590;BME280;1809;48.470;9.226;2023-02-23T08:47:28;47764.91;;;11.50;100.00
3590;BME280;1809;48.470;9.226;2023-02-23T08:49:54;39665.78;;;11.52;100.00
3590;BME280;1809;48.470;9.226;2023-02-23T08:52:22;39676.94;;;11.69;100.00
3590;BME280;1809;48.470;9.226;2023-02-23T08:54:49;35971.31;;;11.72;100.00
3590;BME280;1809;48.470;9.226;2023-02-23T08:57:15;39686.81;;;11.85;100.00
3590;BME280;1809;48.470;9.226;2023-02-23T08:59:41;35637.59;;;11.78;100.00
3590;BME280;1809;48.470;9.226;2023-02-23T09:02:11;38352.03;;;12.08;100.00
3590;BME280;1809;48.470;9.226;2023-02-23T09:04:36;26903.28;;;12.08;100.00
3590;BME280;1809;48.470;9.226;2023-02-23T09:07:03;19852.53;;;12.10;100.00
3590;BME280;1809;48.470;9.226;2023-02-23T09:09:30;22204.47;;;12.19;100.00
3590;BME280;1809;48.470;9.226;2023-02-23T09:11:55;24219.81;;;12.20;100.00
3590;BME280;1809;48.470;9.226;2023-02-23T09:14:21;18184.41;;;12.41;100.00
3590;BME280;1809;48.470;9.226;2023-02-23T09:16:47;13495.28;;;12.59;100.00
3590;BME280;1809;48.470;9.226;2023-02-23T09:19:13;-10254.91;;;12.70;100.00
3590;BME280;1809;48.470;9.226;2023-02-23T09:21:39;-16526.84;;;12.84;100.00
3590;BME280;1809;48.470;9.226;2023-02-23T09:24:05;-16527.28;;;12.86;100.00
3590;BME280;1809;48.470;9.226;2023-02-23T09:26:30;-16530.09;;;12.96;100.00
3590;BME280;1809;48.470;9.226;2023-02-23T09:29:00;-16524.63;;;12.76;100.00
3590;BME280;1809;48.470;9.226;2023-02-23T09:31:26;-16529.38;;;12.93;100.00
3590;BME280;1809;48.470;9.226;2023-02-23T09:33:53;-16527.69;;;12.87;100.00
3590;BME280;1809;48.470;9.226;2023-02-23T09:36:21;-16531.06;;;13.00;100.00
3590;BME280;1809;48.470;9.226;2023-02-23T09:38:50;-16533.88;;;13.10;100.00
3590;BME280;1809;48.470;9.226;2023-02-23T09:44:02;-16539.47;;;13.30;100.00
3590;BME280;1809;48.470;9.226;2023-02-23T09:46:35;-16534.44;;;13.12;100.00
3590;BME280;1809;48.470;9.226;2023-02-23T09:49:12;-16535.28;;;13.15;100.00
3590;BME280;1809;48.470;9.226;2023-02-23T09:51:46;5133.72;;;13.22;100.00
3590;BME280;1809;48.470;9.226;2023-02-23T09:54:14;4131.00;;;13.37;100.00
3590;BME280;1809;48.470;9.226;2023-02-23T09:56:46;1790.69;;;13.72;100.00
3590;BME280;1809;48.470;9.226;2023-02-23T09:59:15;-3555.50;;;13.55;100.00
3590;BME280;1809;48.470;9.226;2023-02-23T10:01:50;8483.88;;;13.45;100.00
3590;BME280;1809;48.470;9.226;2023-02-23T10:04:43;18546.56;;;13.34;100.00
3590;BME280;1809;48.470;9.226;2023-02-23T10:07:39;20900.75;;;13.38;100.00
3590;BME280;1809;48.470;9.226;2023-02-23T10:13:05;24935.19;;;13.31;100.00
3590;BME280;1809;48.470;9.226;2023-02-23T10:20:52;11505.47;;;13.74;100.00
3590;BME280;1809;48.470;9.226;2023-02-23T10:23:28;-11183.25;;;13.95;100.00
3590;BME280;1809;48.470;9.226;2023-02-23T10:25:57;-16564.16;;;14.19;100.00
3590;BME280;1809;48.470;9.226;2023-02-23T10:28:25;-16567.69;;;14.31;100.00
3590;BME280;1809;48.470;9.226;2023-02-23T10:30:54;-16563.47;;;14.16;100.00
3590;BME280;1809;48.470;9.226;2023-02-23T10:33:25;-16568.66;;;14.35;100.00
3590;BME280;1809;48.470;9.226;2023-02-23T10:35:59;-16571.75;;;14.46;100.00
3590;BME280;1809;48.470;9.226;2023-02-23T10:38:30;-16568.78;;;14.35;100.00
3590;BME280;1809;48.470;9.226;2023-02-23T10:40:55;-16568.94;;;14.36;100.00
3590;BME280;1809;48.470;9.226;2023-02-23T10:43:21;-16568.94;;;14.36;100.00
3590;BME280;1809;48.470;9.226;2023-02-23T10:45:49;-16558.28;;;13.97;100.00
3590;BME280;1809;48.470;9.226;2023-02-23T10:48:19;-16555.19;;;13.86;100.00
3590;BME280;1809;48.470;9.226;2023-02-23T10:50:49;-16551.00;;;13.71;100.00
3590;BME280;1809;48.470;9.226;2023-02-23T10:53:22;-16551.69;;;13.74;100.00
3590;BME280;1809;48.470;9.226;2023-02-23T10:56:10;-16553.50;;;13.80;100.00
3590;BME280;1809;48.470;9.226;2023-02-23T10:58:50;-16556.03;;;13.89;100.00
3590;BME280;1809;48.470;9.226;2023-02-23T11:04:19;-16571.19;;;14.44;100.00
3590;BME280;1809;48.470;9.226;2023-02-23T11:06:47;-16571.75;;;14.46;100.00
3590;BME280;1809;48.470;9.226;2023-02-23T11:09:30;-16578.47;;;14.70;100.00
3590;BME280;1809;48.470;9.226;2023-02-23T11:12:13;-16583.66;;;14.89;100.00
3590;BME280;1809;48.470;9.226;2023-02-23T11:14:41;-16589.69;;;15.11;100.00
3590;BME280;1809;48.470;9.226;2023-02-23T11:17:33;-16590.81;;;15.15;100.00
3590;BME280;1809;48.470;9.226;2023-02-23T11:22:42;-16596.28;;;15.34;100.00
3590;BME280;1809;48.470;9.226;2023-02-23T11:25:22;-16588.97;;;15.08;100.00
3590;BME280;1809;48.470;9.226;2023-02-23T11:27:49;-16595.28;;;15.31;100.00
3590;BME280;1809;48.470;9.226;2023-02-23T11:30:20;-16592.50;;;15.21;100.00
3590;BME280;1809;48.470;9.226;2023-02-23T11:32:50;-16580.56;;;14.78;100.00
3590;BME280;1809;48.470;9.226;2023-02-23T11:37:45;-16585.06;;;14.94;100.00
3590;BME280;1809;48.470;9.226;2023-02-23T11:40:21;-16585.06;;;14.94;100.00
3590;BME280;1809;48.470;9.226;2023-02-23T11:42:55;-16590.66;;;15.14;100.00
3590;BME280;1809;48.470;9.226;2023-02-23T11:45:23;-16584.63;;;14.92;100.00
3590;BME280;1809;48.470;9.226;2023-02-23T11:47:51;-16579.88;;;14.75;100.00
3590;BME280;1809;48.470;9.226;2023-02-23T11:50:35;-16584.78;;;14.93;100.00
3590;BME280;1809;48.470;9.226;2023-02-23T11:55:27;-16591.66;;;15.18;100.00
3590;BME280;1809;48.470;9.226;2023-02-23T11:58:22;-16590.53;;;15.14;100.00
3590;BME280;1809;48.470;9.226;2023-02-23T12:00:56;-16595.28;;;15.31;100.00
3590;BME280;1809;48.470;9.226;2023-02-23T12:03:24;-16592.22;;;15.20;100.00
3590;BME280;1809;48.470;9.226;2023-02-23T12:05:53;-16595.84;;;15.33;100.00
3590;BME280;1809;48.470;9.226;2023-02-23T12:08:46;-16595.44;;;15.31;100.00
3590;BME280;1809;48.470;9.226;2023-02-23T12:11:19;-16597.69;;;15.39;100.00
3590;BME280;1809;48.470;9.226;2023-02-23T12:14:02;-16599.34;;;15.45;100.00
3590;BME280;1809;48.470;9.226;2023-02-23T12:16:32;-16595.56;;;15.32;100.00
3590;BME280;1809;48.470;9.226;2023-02-23T12:21:40;-16615.91;;;16.05;100.00
3590;BME280;1809;48.470;9.226;2023-02-23T12:26:59;-16625.56;;;16.40;100.00
3590;BME280;1809;48.470;9.226;2023-02-23T12:29:40;-16621.63;;;16.26;100.00
3590;BME280;1809;48.470;9.226;2023-02-23T12:32:58;-16615.75;;;16.04;100.00
3590;BME280;1809;48.470;9.226;2023-02-23T12:35:22;-16627.53;;;16.47;100.00
3590;BME280;1809;48.470;9.226;2023-02-23T12:38:04;-16624.88;;;16.37;100.00
3590;BME280;1809;48.470;9.226;2023-02-23T12:40:34;-16620.94;;;16.23;100.00
3590;BME280;1809;48.470;9.226;2023-02-23T12:43:26;-16619.53;;;16.18;100.00
3590;BME280;1809;48.470;9.226;2023-02-23T12:48:43;-16628.22;;;16.49;100.00
3590;BME280;1809;48.470;9.226;2023-02-23T12:51:32;-16619.13;;;16.17;100.00
3590;BME280;1809;48.470;9.226;2023-02-23T12:54:00;-16610.44;;;15.85;100.00
3590;BME280;1809;48.470;9.226;2023-02-23T13:02:10;-16609.88;;;15.83;100.00
3590;BME280;1809;48.470;9.226;2023-02-23T13:20:42;-16603.72;;;15.61;100.00
3590;BME280;1809;48.470;9.226;2023-02-23T13:26:18;-16596.84;;;15.36;100.00
3590;BME280;1809;48.470;9.226;2023-02-23T13:31:24;-16596.28;;;15.34;100.00
3590;BME280;1809;48.470;9.226;2023-02-23T13:33:52;-16591.22;;;15.16;100.00
3590;BME280;1809;48.470;9.226;2023-02-23T13:36:19;-16591.38;;;15.17;100.00
3590;BME280;1809;48.470;9.226;2023-02-23T13:39:05;-16590.66;;;15.14;100.00
3590;BME280;1809;48.470;9.226;2023-02-23T13:41:40;-16587.88;;;15.04;100.00
3590;BME280;1809;48.470;9.226;2023-02-23T13:44:34;-16586.59;;;14.99;100.00
3590;BME280;1809;48.470;9.226;2023-02-23T13:50:06;-16585.91;;;14.97;100.00
3590;BME280;1809;48.470;9.226;2023-02-23T13:52:42;-16584.91;;;14.93;100.00
3590;BME280;1809;48.470;9.226;2023-02-23T13:57:53;-16588.56;;;15.06;100.00
3590;BME280;1809;48.470;9.226;2023-02-23T14:00:20;-16585.47;;;14.95;100.00
3590;BME280;1809;48.470;9.226;2023-02-23T14:02:46;-16588.00;;;15.04;100.00
3590;BME280;1809;48.470;9.226;2023-02-23T14:05:21;-16586.88;;;15.00;100.00
3590;BME280;1809;48.470;9.226;2023-02-23T14:07:58;-16581.84;;;14.82;100.00
3590;BME280;1809;48.470;9.226;2023-02-23T14:10:34;-16582.41;;;14.84;100.00
3590;BME280;1809;48.470;9.226;2023-02-23T14:13:33;-16585.47;;;14.95;100.00
3590;BME280;1809;48.470;9.226;2023-02-23T14:16:16;-16589.81;;;15.11;100.00
3590;BME280;1809;48.470;9.226;2023-02-23T14:21:46;-16584.50;;;14.92;100.00
3590;BME280;1809;48.470;9.226;2023-02-23T14:24:18;-16584.91;;;14.93;100.00
3590;BME280;1809;48.470;9.226;2023-02-23T14:27:04;-16587.03;;;15.01;100.00
3590;BME280;1809;48.470;9.226;2023-02-23T14:29:43;-16588.97;;;15.08;100.00
3590;BME280;1809;48.470;9.226;2023-02-23T14:37:19;-16589.28;;;15.09;100.00
3590;BME280;1809;48.470;9.226;2023-02-23T14:39:50;-16589.28;;;15.09;100.00
3590;BME280;1809;48.470;9.226;2023-02-23T14:42:23;-16586.59;;;14.99;100.00
3590;BME280;1809;48.470;9.226;2023-02-23T14:44:49;-16583.38;;;14.88;100.00
3590;BME280;1809;48.470;9.226;2023-02-23T14:47:21;-16585.06;;;14.94;100.00
3590;BME280;1809;48.470;9.226;2023-02-23T14:49:55;-16582.13;;;14.83;100.00
3590;BME280;1809;48.470;9.226;2023-02-23T14:52:26;-16582.53;;;14.85;100.00
3590;BME280;1809;48.470;9.226;2023-02-23T14:57:38;-16581.00;;;14.79;100.00
3590;BME280;1809;48.470;9.226;2023-02-23T15:00:26;-16579.44;;;14.74;100.00
3590;BME280;1809;48.470;9.226;2023-02-23T15:03:04;-16579.75;;;14.75;100.00
3590;BME280;1809;48.470;9.226;2023-02-23T15:05:32;-16576.38;;;14.63;100.00
3590;BME280;1809;48.470;9.226;2023-02-23T15:08:02;-16576.22;;;14.62;100.00
3590;BME280;1809;48.470;9.226;2023-02-23T15:10:40;-16579.31;;;14.73;100.00
3590;BME280;1809;48.470;9.226;2023-02-23T15:13:11;-16574.56;;;14.56;100.00
3590;BME280;1809;48.470;9.226;2023-02-23T15:15:41;-16574.41;;;14.56;100.00
3590;BME280;1809;48.470;9.226;2023-02-23T15:18:19;-16572.31;;;14.48;100.00
3590;BME280;1809;48.470;9.226;2023-02-23T15:20:47;-16574.28;;;14.55;100.00
3590;BME280;1809;48.470;9.226;2023-02-23T15:23:15;-16570.47;;;14.41;100.00
3590;BME280;1809;48.470;9.226;2023-02-23T15:25:41;-16570.06;;;14.40;100.00